Terminal Aerodrome Forecast
Issued by NWS Duluth, MN

Home | Current Version | Previous Version | Text Only | Print | Product List | Glossary On
Versions: 1 2 3 4 5 6 7 8 9 10 11 12 13 14 15 16 17 18 19 20 21
000
FTUS43 KDLH 191300 AAA
TAFDLH
TAF AMD
KDLH 191323Z 1913/2012 11018G25KT P6SM -RA OVC060
      TEMPO 1913/1915 5SM -FZRA OVC035
     FM191500 14014G22KT 5SM -RA BR OVC035
      TEMPO 1915/1918 2SM -RA OVC025
     FM191800 18009KT P6SM VCSH BKN060
     FM192200 15008KT P6SM SCT060=

USA.gov is the U.S. government's official web portal to all federal, state and local government web resources and services.